createdAt,value
2018-12-23T00:01:19.152Z,101736.00
2018-12-23T00:03:51.295Z,101745.00
2018-12-23T00:06:26.043Z,101754.00
2018-12-23T00:09:00.489Z,101754.00
2018-12-23T00:11:34.505Z,101743.00
2018-12-23T00:14:22.053Z,101749.00
2018-12-23T00:16:56.816Z,101757.00
2018-12-23T00:19:31.201Z,101760.00
2018-12-23T00:22:05.436Z,101750.00
2018-12-23T00:24:39.652Z,101751.00
2018-12-23T00:27:17.045Z,101746.00
2018-12-23T00:29:54.050Z,101744.00
2018-12-23T00:32:30.285Z,101748.00
2018-12-23T00:35:04.650Z,101750.00
2018-12-23T00:37:38.944Z,101745.00
2018-12-23T00:40:12.983Z,101745.00
2018-12-23T00:42:47.453Z,101737.00
2018-12-23T00:45:25.444Z,101737.00
2018-12-23T00:48:06.344Z,101738.00
2018-12-23T00:50:43.951Z,101748.00
2018-12-23T00:53:18.062Z,101751.00
2018-12-23T00:55:52.248Z,101753.00
2018-12-23T00:58:26.259Z,101757.00
2018-12-23T01:01:00.177Z,101764.00
2018-12-23T01:06:34.193Z,101751.00
2018-12-23T01:09:21.777Z,101745.00
2018-12-23T01:11:55.660Z,101741.00
2018-12-23T01:14:45.167Z,101747.00
2018-12-23T01:17:19.959Z,101744.00
2018-12-23T01:19:54.344Z,101745.00
2018-12-23T01:22:33.335Z,101748.00
2018-12-23T01:25:09.273Z,101754.00
2018-12-23T01:27:43.563Z,101764.00
2018-12-23T01:30:35.032Z,101764.00
2018-12-23T01:33:09.008Z,101770.00
2018-12-23T01:35:56.516Z,101782.00
2018-12-23T01:38:31.027Z,101783.00
2018-12-23T01:41:13.083Z,101784.00
2018-12-23T01:43:47.697Z,101792.00
2018-12-23T01:46:21.771Z,101792.00
2018-12-23T01:48:56.210Z,101799.00
2018-12-23T01:51:30.187Z,101793.00
2018-12-23T01:54:04.272Z,101794.00
2018-12-23T01:56:38.121Z,101799.00
2018-12-23T01:59:12.113Z,101787.00
2018-12-23T02:01:46.325Z,101786.00
2018-12-23T02:04:20.637Z,101794.00
2018-12-23T02:06:54.954Z,101787.00
2018-12-23T02:09:29.031Z,101800.00
2018-12-23T02:12:03.324Z,101796.00
2018-12-23T02:14:41.583Z,101797.00
2018-12-23T02:17:15.660Z,101804.00
2018-12-23T02:19:49.732Z,101813.00
2018-12-23T02:22:24.068Z,101804.00
2018-12-23T02:25:11.354Z,101808.00
2018-12-23T02:27:45.466Z,101804.00
2018-12-23T02:30:19.586Z,101804.00
2018-12-23T02:32:56.776Z,101795.00
2018-12-23T02:35:31.011Z,101789.00
2018-12-23T02:38:05.460Z,101784.00
2018-12-23T02:40:39.473Z,101792.00
2018-12-23T02:43:15.636Z,101784.00
2018-12-23T02:45:49.913Z,101793.00
2018-12-23T02:48:24.004Z,101792.00
2018-12-23T02:50:58.378Z,101776.00
2018-12-23T02:53:32.678Z,101779.00
2018-12-23T02:56:06.821Z,101782.00
2018-12-23T02:58:40.999Z,101783.00
2018-12-23T03:08:59.020Z,101770.00
2018-12-23T03:11:33.139Z,101775.00
2018-12-23T03:14:07.088Z,101765.00
2018-12-23T03:16:41.093Z,101787.00
2018-12-23T03:19:15.188Z,101781.00
2018-12-23T03:21:49.060Z,101774.00
2018-12-23T03:24:23.010Z,101770.00
2018-12-23T03:26:57.599Z,101776.00
2018-12-23T03:29:31.669Z,101787.00
2018-12-23T03:32:03.101Z,101786.00
2018-12-23T03:34:37.822Z,101785.00
2018-12-23T03:37:16.453Z,101791.00
2018-12-23T03:39:50.424Z,101782.00
2018-12-23T03:42:24.371Z,101780.00
2018-12-23T03:45:02.699Z,101770.00
2018-12-23T03:47:36.489Z,101765.00
2018-12-23T03:50:11.004Z,101774.00
2018-12-23T03:52:45.318Z,101769.00
2018-12-23T03:55:19.814Z,101764.00
2018-12-23T04:00:54.179Z,101766.00
2018-12-23T04:03:32.753Z,101768.00
2018-12-23T04:06:07.332Z,101762.00
2018-12-23T04:08:41.846Z,101761.00
2018-12-23T04:47:15.670Z,101735.00
2018-12-23T04:49:49.958Z,101737.00
2018-12-23T04:52:24.322Z,101739.00
2018-12-23T04:54:58.671Z,101736.00
2018-12-23T04:57:33.080Z,101731.00
2018-12-23T05:00:07.205Z,101725.00
2018-12-23T05:02:41.525Z,101724.00
2018-12-23T05:05:17.918Z,101711.00
2018-12-23T05:07:51.996Z,101723.00
2018-12-23T05:10:26.473Z,101730.00
2018-12-23T05:13:00.666Z,101730.00
2018-12-23T05:15:34.841Z,101725.00
2018-12-23T05:18:09.093Z,101723.00
2018-12-23T05:20:43.330Z,101729.00
2018-12-23T05:23:17.220Z,101737.00
2018-12-23T05:25:52.288Z,101730.00
2018-12-23T05:28:26.828Z,101732.00
2018-12-23T05:30:58.848Z,101733.00
2018-12-23T05:33:33.021Z,101731.00
2018-12-23T05:36:11.136Z,101725.00
2018-12-23T05:38:45.943Z,101734.00
2018-12-23T05:41:18.006Z,101739.00
2018-12-23T05:43:50.078Z,101730.00
2018-12-23T05:46:42.568Z,101730.00
2018-12-23T05:49:16.423Z,101724.00
2018-12-23T05:51:50.577Z,101725.00
2018-12-23T05:54:28.823Z,101727.00
2018-12-23T05:57:07.441Z,101726.00
2018-12-23T05:59:45.483Z,101730.00
2018-12-23T06:02:20.017Z,101721.00
2018-12-23T06:04:54.311Z,101717.00
2018-12-23T06:07:31.603Z,101714.00
2018-12-23T06:10:05.888Z,101714.00
2018-12-23T06:12:40.152Z,101713.00
2018-12-23T06:15:14.233Z,101720.00
2018-12-23T06:17:48.355Z,101722.00
2018-12-23T06:20:22.378Z,101720.00
2018-12-23T06:22:56.412Z,101724.00
2018-12-23T06:25:30.593Z,101723.00
2018-12-23T06:28:04.774Z,101718.00
2018-12-23T06:30:52.387Z,101716.00
2018-12-23T06:33:26.364Z,101723.00
2018-12-23T06:36:00.319Z,101716.00
2018-12-23T06:38:34.645Z,101716.00
2018-12-23T06:41:09.180Z,101712.00
2018-12-23T06:43:43.332Z,101713.00
2018-12-23T06:46:17.522Z,101710.00
2018-12-23T06:48:48.835Z,101711.00
2018-12-23T06:51:23.017Z,101706.00
2018-12-23T07:14:35.004Z,101699.00
2018-12-23T07:17:08.984Z,101695.00
2018-12-23T07:19:43.101Z,101688.00
2018-12-23T07:22:17.203Z,101691.00
2018-12-23T07:24:51.454Z,101694.00
2018-12-23T07:27:25.901Z,101691.00
2018-12-23T07:29:59.985Z,101692.00
2018-12-23T07:32:47.419Z,101681.00
2018-12-23T07:35:22.016Z,101682.00
2018-12-23T07:37:56.344Z,101682.00
2018-12-23T07:40:30.753Z,101680.00
2018-12-23T07:43:04.765Z,101683.00
2018-12-23T07:45:50.918Z,101679.00
2018-12-23T07:51:25.484Z,101682.00
2018-12-23T07:53:59.692Z,101681.00
2018-12-23T07:56:33.884Z,101679.00
2018-12-23T07:59:07.841Z,101671.00
2018-12-23T08:01:56.993Z,101675.00
2018-12-23T08:04:31.662Z,101671.00
2018-12-23T08:07:03.611Z,101666.00
2018-12-23T08:09:37.981Z,101665.00
2018-12-23T08:12:15.722Z,101664.00
2018-12-23T08:14:50.134Z,101663.00
2018-12-23T08:17:29.062Z,101655.00
2018-12-23T08:20:03.352Z,101660.00
2018-12-23T08:22:37.454Z,101666.00
2018-12-23T08:25:09.081Z,101659.00
2018-12-23T08:27:49.266Z,101669.00
2018-12-23T08:30:23.692Z,101668.00
2018-12-23T08:32:57.802Z,101661.00
2018-12-23T08:35:31.994Z,101669.00
2018-12-23T08:38:22.330Z,101660.00
2018-12-23T08:40:56.831Z,101658.00
2018-12-23T08:43:31.537Z,101670.00
2018-12-23T08:46:18.947Z,101671.00
2018-12-23T08:48:53.572Z,101669.00
2018-12-23T08:51:27.785Z,101672.00
2018-12-23T08:54:03.759Z,101675.00
2018-12-23T08:56:38.132Z,101667.00
2018-12-23T08:59:12.177Z,101666.00
2018-12-23T09:01:46.650Z,101652.00
2018-12-23T09:04:20.852Z,101666.00
2018-12-23T09:06:54.916Z,101659.00
2018-12-23T09:09:29.203Z,101655.00
2018-12-23T09:12:03.667Z,101659.00
2018-12-23T09:14:41.683Z,101658.00
2018-12-23T09:17:19.812Z,101656.00
2018-12-23T09:20:01.011Z,101656.00
2018-12-23T09:22:35.424Z,101654.00
2018-12-23T09:25:09.595Z,101648.00
2018-12-23T09:28:22.949Z,101643.00
2018-12-23T09:30:52.577Z,101637.00
2018-12-23T09:33:22.220Z,101632.00
2018-12-23T09:35:51.892Z,101633.00
2018-12-23T09:38:21.715Z,101634.00
2018-12-23T09:40:51.440Z,101634.00
2018-12-23T09:43:22.627Z,101630.00
2018-12-23T09:45:52.246Z,101627.00
2018-12-23T09:48:21.892Z,101632.00
2018-12-23T09:50:51.530Z,101617.00
2018-12-23T09:53:21.136Z,101616.00
2018-12-23T09:55:50.682Z,101600.00
2018-12-23T09:58:20.251Z,101594.00
2018-12-23T10:00:49.842Z,101601.00
2018-12-23T10:03:19.432Z,101603.00
2018-12-23T10:05:49.062Z,101596.00
2018-12-23T10:08:18.660Z,101595.00
2018-12-23T10:10:48.222Z,101592.00
2018-12-23T10:13:17.846Z,101592.00
2018-12-23T10:15:47.440Z,101589.00
2018-12-23T10:18:17.049Z,101588.00
2018-12-23T10:20:46.690Z,101583.00
2018-12-23T10:23:16.246Z,101590.00
2018-12-23T10:25:45.867Z,101585.00
2018-12-23T10:28:15.440Z,101577.00
2018-12-23T10:30:44.994Z,101578.00
2018-12-23T10:33:14.619Z,101574.00
2018-12-23T10:35:44.199Z,101564.00
2018-12-23T10:38:18.356Z,101560.00
2018-12-23T10:40:45.244Z,101550.00
2018-12-23T10:43:14.798Z,101545.00
2018-12-23T10:45:44.345Z,101550.00
2018-12-23T10:48:13.972Z,101545.00
2018-12-23T10:50:43.559Z,101538.00
2018-12-23T10:53:13.107Z,101528.00
2018-12-23T10:55:44.270Z,101528.00
2018-12-23T10:58:13.882Z,101523.00
2018-12-23T11:00:43.494Z,101529.00
2018-12-23T11:03:13.061Z,101507.00
2018-12-23T11:05:42.681Z,101516.00
2018-12-23T11:08:12.264Z,101510.00
2018-12-23T11:10:41.882Z,101503.00
2018-12-23T11:13:11.598Z,101501.00
2018-12-23T11:15:41.146Z,101495.00
2018-12-23T11:18:10.750Z,101498.00
2018-12-23T11:20:40.435Z,101485.00
2018-12-23T11:23:09.970Z,101482.00
2018-12-23T11:25:39.574Z,101482.00
2018-12-23T11:28:09.142Z,101489.00
2018-12-23T11:30:38.742Z,101470.00
2018-12-23T11:33:08.375Z,101475.00
2018-12-23T11:35:37.972Z,101466.00
2018-12-23T11:38:07.623Z,101461.00
2018-12-23T11:40:37.235Z,101459.00
2018-12-23T11:43:06.909Z,101457.00
2018-12-23T11:45:36.467Z,101449.00
2018-12-23T11:48:06.140Z,101454.00
2018-12-23T11:50:35.705Z,101443.00
2018-12-23T11:53:05.288Z,101431.00
2018-12-23T11:55:34.917Z,101423.00
2018-12-23T11:58:04.512Z,101420.00
2018-12-23T12:00:34.147Z,101416.00
2018-12-23T12:03:03.784Z,101412.00
2018-12-23T12:05:33.420Z,101410.00
2018-12-23T12:08:03.692Z,101401.00
2018-12-23T12:10:33.368Z,101391.00
2018-12-23T12:13:03.010Z,101395.00
2018-12-23T12:15:32.579Z,101400.00
2018-12-23T12:18:02.273Z,101390.00
2018-12-23T12:20:31.844Z,101395.00
2018-12-23T12:23:01.404Z,101385.00
2018-12-23T12:25:31.074Z,101376.00
2018-12-23T12:28:00.734Z,101380.00
2018-12-23T12:30:30.278Z,101364.00
2018-12-23T12:32:59.928Z,101367.00
2018-12-23T12:35:29.553Z,101358.00
2018-12-23T12:37:59.114Z,101356.00
2018-12-23T12:40:28.730Z,101341.00
2018-12-23T12:42:58.342Z,101343.00
2018-12-23T12:45:27.952Z,101329.00
2018-12-23T12:47:57.636Z,101317.00
2018-12-23T12:50:27.270Z,101308.00
2018-12-23T12:52:56.856Z,101307.00
2018-12-23T12:55:26.448Z,101292.00
2018-12-23T12:57:56.263Z,101287.00
2018-12-23T13:00:25.869Z,101282.00
2018-12-23T13:02:55.493Z,101284.00
2018-12-23T13:05:25.096Z,101291.00
2018-12-23T13:07:54.709Z,101279.00
2018-12-23T13:10:24.273Z,101285.00
2018-12-23T13:12:53.841Z,101270.00
2018-12-23T13:15:23.422Z,101265.00
2018-12-23T13:17:52.988Z,101261.00
2018-12-23T13:20:22.572Z,101264.00
2018-12-23T13:22:52.373Z,101260.00
2018-12-23T13:25:21.955Z,101254.00
2018-12-23T13:27:51.521Z,101238.00
2018-12-23T13:30:21.183Z,101238.00
2018-12-23T13:32:50.738Z,101234.00
2018-12-23T13:35:20.488Z,101239.00
2018-12-23T13:37:50.148Z,101220.00
2018-12-23T13:40:29.441Z,101212.00
2018-12-23T13:43:18.806Z,101201.00
2018-12-23T13:45:55.665Z,101204.00
2018-12-23T13:49:00.194Z,101203.00
2018-12-23T13:52:07.688Z,101186.00
2018-12-23T13:55:22.609Z,101175.00
2018-12-23T13:58:05.539Z,101165.00
2018-12-23T14:00:57.125Z,101170.00
2018-12-23T14:03:46.320Z,101175.00
2018-12-23T14:07:01.651Z,101178.00
2018-12-23T14:10:01.153Z,101175.00
2018-12-23T14:12:30.696Z,101161.00
2018-12-23T14:15:00.313Z,101152.00
2018-12-23T14:17:29.894Z,101151.00
2018-12-23T14:20:04.337Z,101156.00
2018-12-23T14:22:33.899Z,101147.00
2018-12-23T14:25:03.608Z,101133.00
2018-12-23T14:27:33.134Z,101129.00
2018-12-23T14:30:02.709Z,101123.00
2018-12-23T14:32:32.290Z,101118.00
2018-12-23T14:35:01.930Z,101114.00
2018-12-23T14:37:31.516Z,101107.00
2018-12-23T14:40:01.082Z,101092.00
2018-12-23T14:42:30.682Z,101084.00
2018-12-23T14:45:00.274Z,101094.00
2018-12-23T14:47:29.836Z,101088.00
2018-12-23T14:49:59.418Z,101085.00
2018-12-23T14:52:28.986Z,101075.00
2018-12-23T14:54:58.547Z,101074.00
2018-12-23T14:57:28.107Z,101080.00
2018-12-23T14:59:57.668Z,101081.00
2018-12-23T15:02:27.265Z,101084.00
2018-12-23T15:04:56.838Z,101076.00
2018-12-23T15:07:26.382Z,101062.00
2018-12-23T15:09:55.937Z,101055.00
2018-12-23T15:12:25.550Z,101060.00
2018-12-23T15:14:55.102Z,101067.00
2018-12-23T15:17:24.666Z,101063.00
2018-12-23T15:19:54.254Z,101061.00
2018-12-23T15:22:23.811Z,101050.00
2018-12-23T15:24:53.379Z,101054.00
2018-12-23T15:27:22.985Z,101050.00
2018-12-23T15:29:52.555Z,101036.00
2018-12-23T15:32:22.231Z,101033.00
2018-12-23T15:34:51.814Z,101049.00
2018-12-23T15:37:21.393Z,101035.00
2018-12-23T15:39:50.969Z,101022.00
2018-12-23T15:42:20.543Z,101010.00
2018-12-23T15:44:50.185Z,101003.00
2018-12-23T15:47:19.825Z,100998.00
2018-12-23T15:49:49.390Z,100987.00
2018-12-23T15:52:18.962Z,100976.00
2018-12-23T15:54:48.548Z,100982.00
2018-12-23T15:57:18.147Z,100971.00
2018-12-23T15:59:47.707Z,100982.00
2018-12-23T16:02:17.283Z,100977.00
2018-12-23T16:04:46.949Z,100974.00
2018-12-23T16:07:16.491Z,100971.00
2018-12-23T16:09:51.121Z,100974.00
2018-12-23T16:12:17.346Z,100974.00
2018-12-23T16:14:46.922Z,100982.00
2018-12-23T16:17:16.630Z,100978.00
2018-12-23T16:19:46.204Z,100970.00
2018-12-23T16:22:15.823Z,100970.00
2018-12-23T16:24:45.399Z,100977.00
2018-12-23T16:27:14.983Z,100980.00
2018-12-23T16:29:44.573Z,100977.00
2018-12-23T16:32:14.292Z,100973.00
2018-12-23T16:34:43.867Z,100967.00
2018-12-23T16:37:14.996Z,100957.00
2018-12-23T16:39:44.582Z,100954.00
2018-12-23T16:42:14.155Z,100945.00
2018-12-23T16:44:43.739Z,100939.00
2018-12-23T16:47:13.341Z,100948.00
2018-12-23T16:49:42.940Z,100947.00
2018-12-23T16:52:12.533Z,100945.00
2018-12-23T16:54:42.074Z,100949.00
2018-12-23T16:57:11.691Z,100944.00
2018-12-23T16:59:41.421Z,100939.00
2018-12-23T17:02:10.997Z,100937.00
2018-12-23T17:04:40.556Z,100928.00
2018-12-23T17:07:10.341Z,100921.00
2018-12-23T17:09:40.041Z,100921.00
2018-12-23T17:12:09.651Z,100916.00
2018-12-23T17:14:39.206Z,100920.00
2018-12-23T17:17:08.866Z,100914.00
2018-12-23T17:19:39.068Z,100914.00
2018-12-23T17:22:08.667Z,100917.00
2018-12-23T17:24:38.367Z,100908.00
2018-12-23T17:27:08.084Z,100906.00
2018-12-23T17:29:37.794Z,100897.00
2018-12-23T17:32:07.432Z,100893.00
2018-12-23T17:34:37.046Z,100893.00
2018-12-23T17:37:06.666Z,100892.00
2018-12-23T17:39:36.252Z,100893.00
2018-12-23T17:42:05.845Z,100894.00
2018-12-23T17:44:35.415Z,100895.00
2018-12-23T17:47:04.977Z,100906.00
2018-12-23T17:49:34.562Z,100902.00
2018-12-23T17:52:04.248Z,100897.00
2018-12-23T17:54:33.875Z,100890.00
2018-12-23T17:57:03.501Z,100887.00
2018-12-23T17:59:33.179Z,100883.00
2018-12-23T18:02:02.838Z,100875.00
2018-12-23T18:04:32.462Z,100874.00
2018-12-23T18:07:03.830Z,100873.00
2018-12-23T18:09:33.698Z,100880.00
2018-12-23T18:12:03.330Z,100887.00
2018-12-23T18:14:32.906Z,100881.00
2018-12-23T18:17:02.439Z,100873.00
2018-12-23T18:19:32.064Z,100872.00
2018-12-23T18:22:01.648Z,100880.00
2018-12-23T18:24:31.207Z,100869.00
2018-12-23T18:27:00.821Z,100882.00
2018-12-23T18:29:30.392Z,100887.00
2018-12-23T18:31:59.968Z,100885.00
2018-12-23T18:34:29.577Z,100885.00
2018-12-23T18:36:59.224Z,100879.00
2018-12-23T18:39:28.808Z,100882.00
2018-12-23T18:41:58.416Z,100870.00
2018-12-23T18:44:28.026Z,100866.00
2018-12-23T18:46:57.630Z,100879.00
2018-12-23T18:49:27.220Z,100874.00
2018-12-23T18:51:56.810Z,100874.00
2018-12-23T18:54:26.472Z,100880.00
2018-12-23T18:56:56.331Z,100874.00
2018-12-23T18:59:25.986Z,100872.00
2018-12-23T19:01:58.397Z,100889.00
2018-12-23T19:04:28.054Z,100883.00
2018-12-23T19:06:57.668Z,100888.00
2018-12-23T19:09:30.087Z,100881.00
2018-12-23T19:12:32.955Z,100894.00
2018-12-23T19:15:41.577Z,100896.00
2018-12-23T19:18:24.623Z,100901.00
2018-12-23T19:21:07.848Z,100907.00
2018-12-23T19:23:44.918Z,100915.00
2018-12-23T19:26:29.325Z,100911.00
2018-12-23T19:29:14.643Z,100913.00
2018-12-23T19:32:03.490Z,100913.00
2018-12-23T19:39:16.297Z,100932.00
2018-12-23T19:42:05.435Z,100927.00
2018-12-23T19:45:17.455Z,100939.00
2018-12-23T19:48:15.782Z,100936.00
2018-12-23T19:50:50.080Z,100939.00
2018-12-23T19:53:46.108Z,100930.00
2018-12-23T19:56:53.335Z,100947.00
2018-12-23T19:59:51.631Z,100957.00
2018-12-23T20:02:39.995Z,100963.00
2018-12-23T20:05:31.554Z,100962.00
2018-12-23T20:08:40.420Z,100984.00
2018-12-23T20:11:38.172Z,100985.00
2018-12-23T20:14:37.637Z,100985.00
2018-12-23T20:17:37.282Z,100995.00
2018-12-23T20:20:31.658Z,100999.00
2018-12-23T20:23:45.214Z,101013.00
2018-12-23T20:26:36.810Z,101051.00
2018-12-23T20:29:16.481Z,101075.00
2018-12-23T20:32:11.042Z,101073.00
2018-12-23T20:35:20.029Z,101057.00
2018-12-23T20:38:08.591Z,101054.00
2018-12-23T20:41:16.117Z,101064.00
2018-12-23T20:44:10.463Z,101070.00
2018-12-23T20:46:53.013Z,101059.00
2018-12-23T20:49:48.289Z,101075.00
2018-12-23T20:52:44.401Z,101087.00
2018-12-23T20:55:46.878Z,101072.00
2018-12-23T20:58:35.259Z,101075.00
2018-12-23T21:04:48.699Z,101106.00
2018-12-23T21:08:03.867Z,101110.00
2018-12-23T21:10:52.324Z,101102.00
2018-12-23T21:13:59.597Z,101109.00
2018-12-23T21:16:42.625Z,101112.00
2018-12-23T21:19:40.016Z,101111.00
2018-12-23T21:22:37.917Z,101130.00
2018-12-23T21:25:51.087Z,101136.00
2018-12-23T21:28:31.094Z,101155.00
2018-12-23T21:31:27.810Z,101158.00
2018-12-23T21:34:31.709Z,101187.00
2018-12-23T21:40:58.484Z,101198.00
2018-12-23T21:44:05.352Z,101214.00
2018-12-23T21:47:12.545Z,101240.00
2018-12-23T21:50:19.662Z,101244.00
2018-12-23T21:53:40.553Z,101247.00
2018-12-23T21:57:06.108Z,101253.00
2018-12-23T22:00:08.413Z,101253.00
2018-12-23T22:03:15.568Z,101274.00
2018-12-23T22:05:58.395Z,101280.00
2018-12-23T22:09:11.947Z,101282.00
2018-12-23T22:12:19.314Z,101290.00
2018-12-23T22:15:25.001Z,101288.00
2018-12-23T22:18:12.786Z,101298.00
2018-12-23T22:20:42.331Z,101305.00
2018-12-23T22:23:30.010Z,101300.00
2018-12-23T22:25:59.444Z,101305.00
2018-12-23T22:28:46.824Z,101320.00
2018-12-23T22:31:16.293Z,101322.00
2018-12-23T22:34:03.619Z,101361.00
2018-12-23T22:36:50.901Z,101341.00
2018-12-23T22:39:20.363Z,101335.00
2018-12-23T22:41:49.982Z,101344.00
2018-12-23T22:44:19.462Z,101369.00
2018-12-23T22:47:07.013Z,101367.00
2018-12-23T22:49:36.506Z,101352.00
2018-12-23T22:52:24.174Z,101355.00
2018-12-23T22:54:53.633Z,101398.00
2018-12-23T22:57:41.059Z,101382.00
2018-12-23T23:00:47.111Z,101404.00
2018-12-23T23:03:16.658Z,101437.00
2018-12-23T23:05:46.121Z,101416.00
2018-12-23T23:08:15.627Z,101416.00
2018-12-23T23:10:45.138Z,101431.00
2018-12-23T23:13:18.666Z,101436.00
2018-12-23T23:15:45.758Z,101437.00
2018-12-23T23:18:15.224Z,101435.00
2018-12-23T23:20:44.660Z,101446.00
2018-12-23T23:23:14.153Z,101457.00
2018-12-23T23:25:43.618Z,101450.00
2018-12-23T23:28:13.237Z,101456.00
2018-12-23T23:30:42.680Z,101459.00
2018-12-23T23:33:12.291Z,101463.00
2018-12-23T23:35:41.747Z,101470.00
2018-12-23T23:38:11.323Z,101481.00
2018-12-23T23:40:40.738Z,101484.00
2018-12-23T23:43:10.223Z,101496.00
2018-12-23T23:45:39.685Z,101500.00
2018-12-23T23:48:09.134Z,101506.00
2018-12-23T23:50:38.628Z,101511.00
2018-12-23T23:53:08.071Z,101512.00
2018-12-23T23:55:37.526Z,101516.00
2018-12-23T23:58:06.995Z,101514.00
